Time;durP1;ratioP1;P1;durP2;ratioP2;P2;SDS_P1;SDS_P2;PMS_P1;PMS_P2;Temp;Humidity;BMP_temperature;BMP_pressure;BME280_temperature;BME280_humidity;BME280_pressure;Samples;Min_cycle;Max_cycle;Signal;HPM_P1;HPM_P2
2023/01/30 00:01:42;;;;;;;;;;;23.30;99.90;;;;;;5013903;28;20300;-65
2023/01/30 00:04:11;;;;;;;;;;;23.40;99.90;;;;;;5013673;28;20300;-65
2023/01/30 00:06:41;;;;;;;;;;;23.40;99.90;;;;;;5012798;28;20028;-66
2023/01/30 00:09:10;;;;;;;;;;;23.60;99.90;;;;;;5013718;28;19913;-65
2023/01/30 00:11:36;;;;;;;;;;;23.50;99.90;;;;;;5013663;28;20284;-65
2023/01/30 00:14:03;;;;;;;;;;;23.60;99.90;;;;;;5013566;28;19978;-66
2023/01/30 00:16:29;;;;;;;;;;;23.60;99.90;;;;;;5013134;28;19971;-65
2023/01/30 00:18:56;;;;;;;;;;;23.70;99.90;;;;;;5013144;28;19910;-68
2023/01/30 00:21:23;;;;;;;;;;;23.70;99.90;;;;;;5012987;28;20012;-69
2023/01/30 00:23:49;;;;;;;;;;;23.80;99.90;;;;;;5013348;28;19916;-65
2023/01/30 00:26:16;;;;;;;;;;;23.80;99.90;;;;;;5012922;28;19914;-67
2023/01/30 00:28:43;;;;;;;;;;;23.80;99.90;;;;;;5013523;28;20098;-70
2023/01/30 00:31:09;;;;;;;;;;;23.80;99.90;;;;;;5013068;28;19909;-66
2023/01/30 00:33:38;;;;;;;;;;;23.90;99.90;;;;;;5012783;28;20079;-69
2023/01/30 00:36:05;;;;;;;;;;;23.90;99.90;;;;;;5027531;28;19914;-69
2023/01/30 00:38:32;;;;;;;;;;;23.90;99.90;;;;;;5013234;28;19910;-66
2023/01/30 00:40:58;;;;;;;;;;;24.00;99.90;;;;;;5012769;28;19917;-64
2023/01/30 00:48:57;;;;;;;;;;;24.00;99.90;;;;;;5012585;28;20538;-66
2023/01/30 00:51:24;;;;;;;;;;;24.00;99.90;;;;;;5012236;28;20288;-65
2023/01/30 00:53:50;;;;;;;;;;;24.10;99.90;;;;;;5012754;28;19929;-65
2023/01/30 00:56:17;;;;;;;;;;;24.20;99.90;;;;;;5012145;28;19917;-65
2023/01/30 00:58:44;;;;;;;;;;;24.20;99.90;;;;;;5012033;28;19909;-65
2023/01/30 01:01:10;;;;;;;;;;;24.20;99.90;;;;;;5012322;28;19921;-65
2023/01/30 01:03:37;;;;;;;;;;;24.20;99.90;;;;;;5012550;28;19936;-66
2023/01/30 01:06:04;;;;;;;;;;;24.10;99.90;;;;;;5012158;28;19914;-66
2023/01/30 01:08:30;;;;;;;;;;;24.20;99.90;;;;;;5012594;28;19913;-65
2023/01/30 01:10:57;;;;;;;;;;;24.00;99.90;;;;;;5011994;28;19909;-65
2023/01/30 01:13:24;;;;;;;;;;;23.90;99.90;;;;;;5012087;28;19917;-65
2023/01/30 01:15:50;;;;;;;;;;;23.90;99.90;;;;;;5011957;28;19914;-64
2023/01/30 01:18:17;;;;;;;;;;;23.80;99.90;;;;;;5012292;28;19909;-65
2023/01/30 01:20:44;;;;;;;;;;;23.70;99.90;;;;;;5011943;28;19909;-65
2023/01/30 01:23:10;;;;;;;;;;;23.90;99.90;;;;;;5012215;28;19913;-65
2023/01/30 01:25:37;;;;;;;;;;;23.90;99.90;;;;;;5012254;28;19910;-66
2023/01/30 01:28:04;;;;;;;;;;;24.10;99.90;;;;;;5011916;28;20580;-66
2023/01/30 01:30:30;;;;;;;;;;;24.00;99.90;;;;;;5012143;28;20355;-65
2023/01/30 01:32:57;;;;;;;;;;;24.30;99.90;;;;;;5012064;28;19913;-66
2023/01/30 01:35:24;;;;;;;;;;;24.60;99.90;;;;;;5011890;28;19914;-66
2023/01/30 01:37:53;;;;;;;;;;;25.10;99.90;;;;;;5011599;28;20276;-66
2023/01/30 01:43:16;;;;;;;;;;;26.30;99.90;;;;;;5012584;28;19917;-65
2023/01/30 01:45:43;;;;;;;;;;;26.60;99.90;;;;;;5011785;28;19913;-65
2023/01/30 01:48:13;;;;;;;;;;;27.10;99.90;;;;;;5011998;28;19916;-65
2023/01/30 01:50:43;;;;;;;;;;;27.80;99.90;;;;;;5012463;28;20265;-66
2023/01/30 01:53:11;;;;;;;;;;;28.30;99.90;;;;;;5011786;28;19920;-64
2023/01/30 01:55:39;;;;;;;;;;;28.60;99.90;;;;;;5026830;28;19917;-65
2023/01/30 01:58:11;;;;;;;;;;;28.80;99.90;;;;;;5011625;28;19913;-68
2023/01/30 02:00:37;;;;;;;;;;;28.90;99.90;;;;;;5011917;28;19921;-65
2023/01/30 02:03:10;;;;;;;;;;;28.60;99.90;;;;;;5015751;28;19910;-66
2023/01/30 02:05:39;;;;;;;;;;;28.30;99.90;;;;;;5015321;28;19914;-71
2023/01/30 02:08:14;;;;;;;;;;;28.00;99.90;;;;;;5015540;28;19913;-66
2023/01/30 02:10:43;;;;;;;;;;;27.80;99.90;;;;;;5015502;28;19909;-68
2023/01/30 02:13:10;;;;;;;;;;;27.80;99.90;;;;;;5015338;28;19918;-65
2023/01/30 02:15:37;;;;;;;;;;;27.80;99.90;;;;;;5013962;28;20284;-65
2023/01/30 02:18:03;;;;;;;;;;;27.80;99.90;;;;;;5015387;28;20280;-65
2023/01/30 02:20:48;;;;;;;;;;;27.90;99.90;;;;;;5015264;28;19948;-68
2023/01/30 02:23:15;;;;;;;;;;;28.10;99.90;;;;;;5030176;28;20280;-65
2023/01/30 02:25:42;;;;;;;;;;;28.30;99.90;;;;;;5015046;28;20011;-65
2023/01/30 02:28:29;;;;;;;;;;;28.30;99.90;;;;;;5030217;28;19941;-64
2023/01/30 02:31:02;;;;;;;;;;;28.20;99.90;;;;;;5014944;28;19921;-64
2023/01/30 02:33:40;;;;;;;;;;;28.10;99.90;;;;;;5014935;28;19932;-67
2023/01/30 02:36:16;;;;;;;;;;;28.00;99.90;;;;;;5014552;28;19936;-65
2023/01/30 02:39:01;;;;;;;;;;;28.10;99.90;;;;;;5014999;28;19914;-65
2023/01/30 02:41:37;;;;;;;;;;;28.20;99.90;;;;;;5014795;28;19921;-66
2023/01/30 02:44:04;;;;;;;;;;;28.10;99.90;;;;;;5014854;28;19913;-65
2023/01/30 02:46:40;;;;;;;;;;;28.10;99.90;;;;;;5014270;28;20001;-65
2023/01/30 02:49:13;;;;;;;;;;;28.30;99.90;;;;;;5014708;28;20249;-65
2023/01/30 02:51:41;;;;;;;;;;;28.30;99.90;;;;;;5014972;28;19917;-66
2023/01/30 02:54:10;;;;;;;;;;;28.10;99.90;;;;;;5014582;28;19947;-66
2023/01/30 02:56:51;;;;;;;;;;;28.00;99.90;;;;;;5014064;28;19910;-65
2023/01/30 02:59:30;;;;;;;;;;;27.80;99.90;;;;;;5014708;28;19999;-66
2023/01/30 03:02:14;;;;;;;;;;;27.80;99.90;;;;;;5014346;28;19926;-66
2023/01/30 03:04:41;;;;;;;;;;;27.80;99.90;;;;;;5014357;28;20001;-65
2023/01/30 03:07:08;;;;;;;;;;;28.00;99.90;;;;;;5014428;28;19917;-69
2023/01/30 03:09:50;;;;;;;;;;;28.20;99.90;;;;;;5014455;28;19910;-64
2023/01/30 03:12:35;;;;;;;;;;;28.30;99.90;;;;;;5013968;28;19910;-65
2023/01/30 03:15:04;;;;;;;;;;;28.30;99.90;;;;;;5014453;28;20000;-65
2023/01/30 03:17:32;;;;;;;;;;;28.20;99.90;;;;;;5014022;28;20012;-65
2023/01/30 03:19:59;;;;;;;;;;;28.10;99.90;;;;;;5014175;28;20004;-65
2023/01/30 03:22:25;;;;;;;;;;;28.20;99.90;;;;;;5014160;28;19980;-65
2023/01/30 03:24:52;;;;;;;;;;;28.20;99.90;;;;;;5014149;28;19909;-65
2023/01/30 03:27:19;;;;;;;;;;;28.30;99.90;;;;;;5013922;28;19937;-65
2023/01/30 03:29:46;;;;;;;;;;;28.30;99.90;;;;;;5014254;28;19914;-65
2023/01/30 03:32:16;;;;;;;;;;;28.40;99.90;;;;;;5014107;28;19914;-65
2023/01/30 03:34:42;;;;;;;;;;;28.40;99.90;;;;;;5013937;28;19917;-65
2023/01/30 03:37:09;;;;;;;;;;;28.40;99.90;;;;;;5013552;28;20294;-68
2023/01/30 03:39:36;;;;;;;;;;;28.50;99.90;;;;;;5013648;28;19914;-65
2023/01/30 03:42:02;;;;;;;;;;;28.60;99.90;;;;;;5013939;28;19910;-65
2023/01/30 03:44:29;;;;;;;;;;;28.50;99.90;;;;;;5014005;28;19909;-64
2023/01/30 03:46:56;;;;;;;;;;;28.40;99.90;;;;;;5013630;28;20364;-66
2023/01/30 03:49:22;;;;;;;;;;;28.50;99.90;;;;;;5013694;28;20000;-65
2023/01/30 03:51:49;;;;;;;;;;;28.20;99.90;;;;;;5013707;28;20004;-65
2023/01/30 03:54:16;;;;;;;;;;;28.10;99.90;;;;;;5013626;28;20424;-64
2023/01/30 03:56:42;;;;;;;;;;;28.00;99.90;;;;;;5013422;28;20233;-65
2023/01/30 03:59:09;;;;;;;;;;;28.00;99.90;;;;;;5013790;28;19909;-64
2023/01/30 04:01:36;;;;;;;;;;;28.00;99.90;;;;;;5013036;28;19987;-64
2023/01/30 04:04:02;;;;;;;;;;;28.00;99.90;;;;;;5013506;28;19968;-64
2023/01/30 04:06:29;;;;;;;;;;;28.00;99.90;;;;;;5012993;28;20448;-65
2023/01/30 04:08:56;;;;;;;;;;;27.90;99.90;;;;;;5013418;28;20358;-64
2023/01/30 04:11:22;;;;;;;;;;;27.80;99.90;;;;;;5013181;28;19916;-65
2023/01/30 04:13:49;;;;;;;;;;;27.70;99.90;;;;;;5012960;28;19917;-65
2023/01/30 04:16:17;;;;;;;;;;;27.60;99.90;;;;;;5012914;28;19921;-65
2023/01/30 04:18:45;;;;;;;;;;;27.60;99.90;;;;;;5012801;28;19935;-65
2023/01/30 04:21:12;;;;;;;;;;;27.60;99.90;;;;;;5027978;28;19989;-65
2023/01/30 04:23:38;;;;;;;;;;;27.60;99.90;;;;;;5012494;28;19917;-65
2023/01/30 04:26:06;;;;;;;;;;;27.40;99.90;;;;;;5012570;28;20004;-65
2023/01/30 04:28:32;;;;;;;;;;;27.30;99.90;;;;;;5012669;28;19909;-65
2023/01/30 04:30:59;;;;;;;;;;;27.30;99.90;;;;;;5013043;28;20474;-64
2023/01/30 04:33:26;;;;;;;;;;;27.40;99.90;;;;;;5012216;28;19917;-64
2023/01/30 04:35:57;;;;;;;;;;;27.40;99.90;;;;;;5012890;28;19909;-64
2023/01/30 04:38:24;;;;;;;;;;;27.50;99.90;;;;;;5012791;28;20355;-66
2023/01/30 04:40:54;;;;;;;;;;;27.30;99.90;;;;;;5012927;28;19913;-64
2023/01/30 04:43:22;;;;;;;;;;;27.30;99.90;;;;;;5012540;28;19913;-65
2023/01/30 04:45:49;;;;;;;;;;;27.30;99.90;;;;;;5012329;28;19917;-63
2023/01/30 04:48:16;;;;;;;;;;;27.50;99.90;;;;;;5012876;28;19914;-63
2023/01/30 04:50:50;;;;;;;;;;;27.70;99.90;;;;;;5012533;28;20261;-62
2023/01/30 04:53:18;;;;;;;;;;;27.80;99.90;;;;;;5012454;28;20276;-63
2023/01/30 04:55:45;;;;;;;;;;;27.80;99.90;;;;;;5012111;28;19928;-64
2023/01/30 04:58:12;;;;;;;;;;;27.80;99.90;;;;;;5012856;28;20309;-63
2023/01/30 05:00:39;;;;;;;;;;;27.80;99.90;;;;;;5012402;28;20331;-64
2023/01/30 05:03:06;;;;;;;;;;;27.70;99.90;;;;;;5012291;28;19914;-64
2023/01/30 05:05:33;;;;;;;;;;;27.60;99.90;;;;;;5011980;28;19920;-64
2023/01/30 05:08:00;;;;;;;;;;;27.60;99.90;;;;;;5012723;28;19910;-64
2023/01/30 05:10:27;;;;;;;;;;;27.50;99.90;;;;;;5012353;28;19914;-64
2023/01/30 05:12:54;;;;;;;;;;;27.70;99.90;;;;;;5012575;28;20033;-64
2023/01/30 05:15:20;;;;;;;;;;;27.70;99.90;;;;;;5011942;28;20343;-67
2023/01/30 05:17:47;;;;;;;;;;;27.60;99.90;;;;;;5012231;28;20347;-64
2023/01/30 05:20:14;;;;;;;;;;;27.50;99.90;;;;;;5012405;28;19909;-65
2023/01/30 05:22:41;;;;;;;;;;;27.50;99.90;;;;;;5012381;28;19913;-65
2023/01/30 05:25:08;;;;;;;;;;;27.30;99.90;;;;;;5012233;28;20238;-65
2023/01/30 05:27:35;;;;;;;;;;;27.30;99.90;;;;;;5011339;28;20360;-65
2023/01/30 05:30:02;;;;;;;;;;;27.20;99.90;;;;;;5012361;28;20347;-64
2023/01/30 05:32:29;;;;;;;;;;;27.20;99.90;;;;;;5011752;28;20276;-64
2023/01/30 05:34:56;;;;;;;;;;;27.20;99.90;;;;;;5011981;28;20412;-64
2023/01/30 05:37:23;;;;;;;;;;;27.10;99.90;;;;;;5011220;28;19913;-65
2023/01/30 05:39:50;;;;;;;;;;;27.10;99.90;;;;;;5011872;28;19914;-65
2023/01/30 05:42:17;;;;;;;;;;;27.10;99.90;;;;;;5011725;28;20284;-65
2023/01/30 05:44:44;;;;;;;;;;;27.10;99.90;;;;;;5011848;28;19963;-65
2023/01/30 05:47:11;;;;;;;;;;;27.10;99.90;;;;;;5011618;28;19914;-65
2023/01/30 05:49:41;;;;;;;;;;;27.10;99.90;;;;;;5011704;28;19948;-65
2023/01/30 05:52:08;;;;;;;;;;;27.10;99.90;;;;;;5009545;28;19918;-65
2023/01/30 05:54:36;;;;;;;;;;;26.90;99.90;;;;;;5009846;28;20368;-64
2023/01/30 05:57:03;;;;;;;;;;;26.80;99.90;;;;;;5009326;28;19909;-66
2023/01/30 05:59:29;;;;;;;;;;;26.70;99.90;;;;;;5009663;28;20004;-68
2023/01/30 06:01:56;;;;;;;;;;;26.70;99.90;;;;;;5009713;28;19925;-66
2023/01/30 06:04:23;;;;;;;;;;;26.60;99.90;;;;;;5009309;28;19990;-67
2023/01/30 06:06:49;;;;;;;;;;;26.60;99.90;;;;;;5009396;28;19979;-65
2023/01/30 06:09:16;;;;;;;;;;;26.60;99.90;;;;;;5009165;28;20253;-64
2023/01/30 06:11:43;;;;;;;;;;;26.50;99.90;;;;;;5009426;28;19915;-65
2023/01/30 06:14:10;;;;;;;;;;;26.30;99.90;;;;;;5009496;28;19917;-65
2023/01/30 06:16:36;;;;;;;;;;;26.20;99.90;;;;;;5009141;28;19913;-67
2023/01/30 06:19:03;;;;;;;;;;;26.10;99.90;;;;;;5008866;28;19914;-64
2023/01/30 06:21:30;;;;;;;;;;;25.70;99.90;;;;;;5009206;28;19909;-68
2023/01/30 06:23:57;;;;;;;;;;;25.50;99.90;;;;;;5009374;28;19955;-64
2023/01/30 06:26:24;;;;;;;;;;;25.20;99.90;;;;;;5009083;28;20257;-64
2023/01/30 06:28:50;;;;;;;;;;;25.10;99.90;;;;;;5009516;28;19920;-66
2023/01/30 06:31:17;;;;;;;;;;;25.00;99.90;;;;;;5008544;28;19913;-62
2023/01/30 06:33:44;;;;;;;;;;;24.60;99.90;;;;;;5008909;28;20008;-63
2023/01/30 06:36:11;;;;;;;;;;;24.20;99.90;;;;;;5009233;28;19933;-63
2023/01/30 06:38:37;;;;;;;;;;;23.70;99.90;;;;;;5009331;28;19910;-64
2023/01/30 06:41:04;;;;;;;;;;;23.50;99.90;;;;;;5009755;28;19968;-64
2023/01/30 06:43:31;;;;;;;;;;;23.30;99.90;;;;;;5009240;28;20249;-63
2023/01/30 06:45:58;;;;;;;;;;;22.80;99.90;;;;;;5009117;28;20400;-62
2023/01/30 06:48:25;;;;;;;;;;;23.10;99.90;;;;;;5012276;28;20281;-64
2023/01/30 06:50:52;;;;;;;;;;;23.10;99.90;;;;;;5013373;28;19909;-67
2023/01/30 06:53:18;;;;;;;;;;;23.00;99.90;;;;;;5013057;28;19929;-68
2023/01/30 06:55:45;;;;;;;;;;;22.70;99.90;;;;;;5012665;28;20019;-65
2023/01/30 06:58:13;;;;;;;;;;;22.70;99.90;;;;;;5012931;28;19928;-67
2023/01/30 07:00:41;;;;;;;;;;;22.70;99.90;;;;;;5012588;28;20335;-64
2023/01/30 07:03:12;;;;;;;;;;;22.50;99.90;;;;;;5012940;28;19956;-68
2023/01/30 07:05:43;;;;;;;;;;;22.60;99.90;;;;;;5012195;28;21459;-66
2023/01/30 07:08:10;;;;;;;;;;;22.60;99.90;;;;;;5013123;28;19909;-66
2023/01/30 07:10:37;;;;;;;;;;;22.70;99.90;;;;;;5012421;28;20028;-65
2023/01/30 07:13:04;;;;;;;;;;;22.70;99.90;;;;;;5012869;28;19918;-65
2023/01/30 07:15:31;;;;;;;;;;;22.70;99.90;;;;;;5012292;28;19913;-66
2023/01/30 07:17:57;;;;;;;;;;;22.70;99.90;;;;;;5012690;28;19975;-65
2023/01/30 07:20:24;;;;;;;;;;;22.90;99.90;;;;;;5013034;28;19920;-66
2023/01/30 07:22:54;;;;;;;;;;;22.80;99.90;;;;;;5012240;28;19914;-67
2023/01/30 07:25:22;;;;;;;;;;;22.80;99.90;;;;;;5012255;28;20008;-65
2023/01/30 07:27:59;;;;;;;;;;;22.80;99.90;;;;;;5012375;28;20013;-66
2023/01/30 07:30:26;;;;;;;;;;;22.70;99.90;;;;;;5012627;28;19947;-67
2023/01/30 07:32:54;;;;;;;;;;;22.60;99.90;;;;;;5011991;28;19968;-65
2023/01/30 07:35:22;;;;;;;;;;;22.30;99.90;;;;;;5011181;28;19914;-68
2023/01/30 07:37:49;;;;;;;;;;;22.00;99.90;;;;;;5005436;28;20594;-66
2023/01/30 07:40:16;;;;;;;;;;;22.00;99.90;;;;;;5005891;28;19960;-65
2023/01/30 07:42:43;;;;;;;;;;;22.10;99.90;;;;;;5006082;28;19920;-66
2023/01/30 07:45:10;;;;;;;;;;;22.10;99.90;;;;;;5005453;28;19913;-70
2023/01/30 07:47:36;;;;;;;;;;;22.20;99.90;;;;;;5005323;28;19914;-67
2023/01/30 07:50:03;;;;;;;;;;;22.00;99.90;;;;;;5005475;28;19920;-65
2023/01/30 07:52:30;;;;;;;;;;;21.90;99.90;;;;;;5005766;28;19914;-67
2023/01/30 07:54:56;;;;;;;;;;;21.80;99.90;;;;;;5006008;28;19924;-68
2023/01/30 07:57:23;;;;;;;;;;;21.90;99.90;;;;;;5005424;28;19913;-65
2023/01/30 07:59:50;;;;;;;;;;;21.70;99.90;;;;;;5004215;28;20685;-66
2023/01/30 08:02:16;;;;;;;;;;;21.60;99.90;;;;;;5004726;28;19926;-63
2023/01/30 08:04:43;;;;;;;;;;;21.60;99.90;;;;;;5005142;28;19917;-63
2023/01/30 08:07:10;;;;;;;;;;;21.70;99.90;;;;;;5004582;28;20047;-65
2023/01/30 08:09:37;;;;;;;;;;;21.60;99.90;;;;;;5004635;28;20221;-64
2023/01/30 08:12:03;;;;;;;;;;;21.50;99.90;;;;;;5005003;28;20324;-66
2023/01/30 08:14:30;;;;;;;;;;;21.60;99.90;;;;;;5005145;28;19921;-65
2023/01/30 08:16:57;;;;;;;;;;;21.70;99.90;;;;;;5004734;28;20365;-64
2023/01/30 08:19:23;;;;;;;;;;;21.60;99.90;;;;;;5004715;28;20008;-69
2023/01/30 08:21:50;;;;;;;;;;;21.60;99.90;;;;;;5005011;28;20029;-64
2023/01/30 08:24:17;;;;;;;;;;;21.60;99.90;;;;;;5005072;28;20021;-64
2023/01/30 08:26:43;;;;;;;;;;;21.50;99.90;;;;;;5004957;28;19919;-64
2023/01/30 08:29:10;;;;;;;;;;;21.50;99.90;;;;;;5004413;28;20319;-68
2023/01/30 08:31:37;;;;;;;;;;;21.60;99.90;;;;;;5004665;28;19913;-69
2023/01/30 08:34:03;;;;;;;;;;;21.60;99.90;;;;;;5004841;28;19921;-64
2023/01/30 08:36:30;;;;;;;;;;;21.50;99.90;;;;;;5004374;28;19914;-66
2023/01/30 08:38:56;;;;;;;;;;;21.60;99.90;;;;;;5004886;28;19913;-65
2023/01/30 08:41:23;;;;;;;;;;;21.60;99.90;;;;;;5010152;28;19913;-63
2023/01/30 08:43:50;;;;;;;;;;;21.50;99.90;;;;;;5012951;28;19920;-64
2023/01/30 08:46:16;;;;;;;;;;;21.50;99.90;;;;;;5012775;28;19953;-69
2023/01/30 08:48:44;;;;;;;;;;;21.50;99.90;;;;;;5012827;28;19968;-65
2023/01/30 08:51:10;;;;;;;;;;;21.50;99.90;;;;;;5012898;28;19914;-62
2023/01/30 08:53:37;;;;;;;;;;;21.40;99.90;;;;;;5012487;28;19947;-64
2023/01/30 08:56:03;;;;;;;;;;;21.40;99.90;;;;;;5012615;28;19952;-63
2023/01/30 08:58:30;;;;;;;;;;;21.30;99.90;;;;;;5012899;28;19909;-62
2023/01/30 09:00:57;;;;;;;;;;;21.40;99.90;;;;;;5012432;28;19922;-68
2023/01/30 09:03:24;;;;;;;;;;;21.30;99.90;;;;;;5012389;28;19918;-66
2023/01/30 09:05:54;;;;;;;;;;;21.40;99.90;;;;;;5012373;28;19909;-65
2023/01/30 09:08:21;;;;;;;;;;;21.40;99.90;;;;;;5012470;28;20383;-63
2023/01/30 09:10:48;;;;;;;;;;;21.30;99.90;;;;;;5007703;28;19924;-67
2023/01/30 09:13:16;;;;;;;;;;;21.30;99.90;;;;;;5003840;28;19924;-67
2023/01/30 09:15:43;;;;;;;;;;;21.20;99.90;;;;;;5003855;28;19913;-66
2023/01/30 09:18:09;;;;;;;;;;;21.20;99.90;;;;;;5004264;28;20455;-63
2023/01/30 09:20:37;;;;;;;;;;;21.20;99.90;;;;;;5003840;28;20335;-64
2023/01/30 09:23:04;;;;;;;;;;;21.20;99.90;;;;;;5004056;28;19914;-71
2023/01/30 09:25:30;;;;;;;;;;;21.20;99.90;;;;;;5003218;28;19914;-69
2023/01/30 09:27:57;;;;;;;;;;;21.10;99.90;;;;;;5003975;28;19961;-67
2023/01/30 09:30:24;;;;;;;;;;;21.10;99.90;;;;;;5003595;28;19914;-63
2023/01/30 09:32:51;;;;;;;;;;;21.00;99.90;;;;;;5003499;28;19913;-65
2023/01/30 09:35:17;;;;;;;;;;;21.10;99.90;;;;;;5002931;28;20018;-63
2023/01/30 09:37:48;;;;;;;;;;;21.10;99.90;;;;;;5003181;28;19914;-63
2023/01/30 09:40:19;;;;;;;;;;;21.00;99.90;;;;;;5003752;28;19920;-63
2023/01/30 09:43:04;;;;;;;;;;;21.00;99.90;;;;;;5003995;28;20011;-65
2023/01/30 09:45:38;;;;;;;;;;;21.00;99.90;;;;;;5003448;28;19917;-63
2023/01/30 09:48:05;;;;;;;;;;;21.10;99.90;;;;;;5003440;28;20578;-62
2023/01/30 09:50:42;;;;;;;;;;;21.00;99.90;;;;;;5003419;28;20004;-63
2023/01/30 09:53:16;;;;;;;;;;;21.10;99.90;;;;;;5003938;28;19994;-67
2023/01/30 09:55:43;;;;;;;;;;;21.10;99.90;;;;;;5003304;28;19920;-69
2023/01/30 09:58:16;;;;;;;;;;;21.10;99.90;;;;;;5003390;28;19914;-67
2023/01/30 10:00:43;;;;;;;;;;;21.00;99.90;;;;;;5003183;28;19924;-64
2023/01/30 10:03:14;;;;;;;;;;;21.10;99.90;;;;;;5003114;28;20028;-63
2023/01/30 10:05:47;;;;;;;;;;;21.00;99.90;;;;;;5003247;28;19929;-65
2023/01/30 10:08:28;;;;;;;;;;;21.00;99.90;;;;;;5003637;28;20364;-62
2023/01/30 10:11:05;;;;;;;;;;;21.00;99.90;;;;;;5003088;28;19914;-62
2023/01/30 10:13:50;;;;;;;;;;;21.00;99.90;;;;;;5003086;28;20318;-72
2023/01/30 10:16:17;;;;;;;;;;;21.00;99.90;;;;;;5002591;28;19955;-70
2023/01/30 10:18:53;;;;;;;;;;;20.90;99.90;;;;;;5003445;28;19914;-73
2023/01/30 10:21:39;;;;;;;;;;;21.00;99.90;;;;;;5003600;28;19960;-65
2023/01/30 10:24:06;;;;;;;;;;;20.90;99.90;;;;;;5007098;28;19914;-62
2023/01/30 10:26:33;;;;;;;;;;;20.80;99.90;;;;;;5007229;28;20359;-65
2023/01/30 10:29:04;;;;;;;;;;;20.80;99.90;;;;;;5007000;28;19917;-64
2023/01/30 10:31:36;;;;;;;;;;;20.90;99.90;;;;;;5007049;28;19963;-72
2023/01/30 10:34:09;;;;;;;;;;;20.70;99.90;;;;;;5006963;28;20304;-69
2023/01/30 10:36:36;;;;;;;;;;;20.70;99.90;;;;;;5006736;28;20599;-71
2023/01/30 10:39:07;;;;;;;;;;;20.70;99.90;;;;;;5007046;28;19936;-72
2023/01/30 10:41:51;;;;;;;;;;;20.70;99.90;;;;;;5006699;28;19921;-68
2023/01/30 10:44:21;;;;;;;;;;;20.70;99.90;;;;;;5006877;28;19953;-66
2023/01/30 10:46:57;;;;;;;;;;;20.70;99.90;;;;;;5005500;28;20458;-63
2023/01/30 10:49:47;;;;;;;;;;;20.80;99.90;;;;;;5006746;28;20435;-68
2023/01/30 10:52:19;;;;;;;;;;;20.80;99.90;;;;;;5001669;28;19921;-63
2023/01/30 10:54:55;;;;;;;;;;;20.70;99.90;;;;;;5007112;28;20498;-70
2023/01/30 10:57:25;;;;;;;;;;;20.70;99.90;;;;;;5006485;28;19936;-69
2023/01/30 11:00:04;;;;;;;;;;;20.80;99.90;;;;;;5006710;28;19949;-72
2023/01/30 11:02:57;;;;;;;;;;;20.80;99.90;;;;;;5004583;28;19925;-69
2023/01/30 11:05:25;;;;;;;;;;;20.80;99.90;;;;;;5006385;28;19913;-69
2023/01/30 11:07:51;;;;;;;;;;;20.80;99.90;;;;;;5006490;28;20356;-72
2023/01/30 11:10:20;;;;;;;;;;;20.80;99.90;;;;;;5006059;28;19917;-72
2023/01/30 11:12:49;;;;;;;;;;;20.80;99.90;;;;;;5006246;28;19921;-64
2023/01/30 11:15:17;;;;;;;;;;;20.70;99.90;;;;;;5005948;28;19918;-67
2023/01/30 11:17:44;;;;;;;;;;;20.70;99.90;;;;;;5006279;28;19914;-64
2023/01/30 11:20:11;;;;;;;;;;;20.80;99.90;;;;;;5006458;28;20740;-69
2023/01/30 11:22:44;;;;;;;;;;;20.70;99.90;;;;;;5006015;28;19948;-71
2023/01/30 11:25:15;;;;;;;;;;;20.70;99.90;;;;;;5005728;28;19913;-67
2023/01/30 11:27:43;;;;;;;;;;;20.80;99.90;;;;;;5006408;28;19917;-67
2023/01/30 11:30:10;;;;;;;;;;;20.80;99.90;;;;;;5005952;28;20360;-69
2023/01/30 11:32:36;;;;;;;;;;;20.90;99.90;;;;;;5006010;28;19917;-66
2023/01/30 11:35:06;;;;;;;;;;;20.80;99.90;;;;;;5005351;28;20020;-63
2023/01/30 11:37:34;;;;;;;;;;;20.80;99.90;;;;;;5005832;28;20240;-67
2023/01/30 11:40:07;;;;;;;;;;;20.80;99.90;;;;;;5005970;28;19920;-63
2023/01/30 11:42:34;;;;;;;;;;;20.90;99.90;;;;;;5005913;28;20408;-62
2023/01/30 11:45:01;;;;;;;;;;;20.80;99.90;;;;;;5006047;28;20439;-66
2023/01/30 11:47:28;;;;;;;;;;;20.90;99.90;;;;;;5005408;28;19913;-65
2023/01/30 11:49:57;;;;;;;;;;;20.80;99.90;;;;;;4987936;28;19918;-62
2023/01/30 11:52:27;;;;;;;;;;;20.80;99.90;;;;;;5006061;28;20011;-67
2023/01/30 11:54:59;;;;;;;;;;;20.80;99.90;;;;;;5005292;28;20589;-70
2023/01/30 11:57:26;;;;;;;;;;;20.90;99.90;;;;;;5005526;28;20491;-65
2023/01/30 11:59:57;;;;;;;;;;;20.90;99.90;;;;;;5005733;28;19917;-66
2023/01/30 12:02:25;;;;;;;;;;;21.00;99.90;;;;;;5005008;28;19934;-64
2023/01/30 12:04:54;;;;;;;;;;;20.90;99.90;;;;;;5005203;28;19956;-64
2023/01/30 12:07:22;;;;;;;;;;;20.80;99.90;;;;;;5005518;28;20016;-67
2023/01/30 12:09:50;;;;;;;;;;;20.90;99.90;;;;;;5005511;28;19983;-66
2023/01/30 12:12:33;;;;;;;;;;;20.90;99.90;;;;;;5008532;28;19913;-64
2023/01/30 12:15:02;;;;;;;;;;;20.90;99.90;;;;;;5013247;28;20036;-63
2023/01/30 12:17:55;;;;;;;;;;;20.90;99.90;;;;;;5013396;28;19909;-68
2023/01/30 12:20:39;;;;;;;;;;;20.90;99.90;;;;;;4997691;28;19960;-65
2023/01/30 12:23:18;;;;;;;;;;;20.90;99.90;;;;;;5013556;28;19960;-63
2023/01/30 12:25:45;;;;;;;;;;;20.90;99.90;;;;;;5013292;28;19913;-70
2023/01/30 12:28:30;;;;;;;;;;;21.00;99.90;;;;;;5013601;28;19909;-63
2023/01/30 12:31:11;;;;;;;;;;;21.00;99.90;;;;;;5013174;28;19909;-72
2023/01/30 12:33:38;;;;;;;;;;;21.00;99.90;;;;;;5013248;28;20324;-63
2023/01/30 12:36:27;;;;;;;;;;;20.90;99.90;;;;;;5013109;28;19910;-63
2023/01/30 12:38:57;;;;;;;;;;;21.00;99.90;;;;;;4993979;28;19910;-62
2023/01/30 12:41:26;;;;;;;;;;;21.00;99.90;;;;;;5013172;28;20276;-71
2023/01/30 12:44:11;;;;;;;;;;;20.90;99.90;;;;;;5013172;28;19974;-64
2023/01/30 12:46:38;;;;;;;;;;;21.00;99.90;;;;;;5012432;28;19921;-64
2023/01/30 12:49:15;;;;;;;;;;;21.00;99.90;;;;;;5013271;28;19909;-63
2023/01/30 12:51:48;;;;;;;;;;;21.00;99.90;;;;;;5012925;28;19913;-66
2023/01/30 12:54:17;;;;;;;;;;;21.00;99.90;;;;;;5013037;28;19945;-63
2023/01/30 12:56:53;;;;;;;;;;;21.00;99.90;;;;;;5012659;28;19909;-62
2023/01/30 12:59:26;;;;;;;;;;;21.00;99.90;;;;;;5012869;28;19913;-62
2023/01/30 13:01:59;;;;;;;;;;;21.10;99.90;;;;;;5012593;28;20020;-65
2023/01/30 13:04:44;;;;;;;;;;;21.00;99.90;;;;;;5012808;28;19913;-63
2023/01/30 13:07:24;;;;;;;;;;;20.90;99.90;;;;;;5012752;28;19909;-69
2023/01/30 13:10:08;;;;;;;;;;;21.00;99.90;;;;;;5012694;28;19981;-63
2023/01/30 13:12:49;;;;;;;;;;;21.00;99.90;;;;;;5012854;28;19913;-63
2023/01/30 13:15:27;;;;;;;;;;;21.10;99.90;;;;;;5011956;28;20016;-63
2023/01/30 13:18:06;;;;;;;;;;;21.10;99.90;;;;;;5012732;28;19944;-60
2023/01/30 13:20:51;;;;;;;;;;;21.10;99.90;;;;;;5012590;28;20361;-63
2023/01/30 13:23:30;;;;;;;;;;;21.00;99.90;;;;;;5012348;28;19920;-64
2023/01/30 13:26:03;;;;;;;;;;;21.00;99.90;;;;;;5012279;28;19916;-63
2023/01/30 13:28:41;;;;;;;;;;;21.00;99.90;;;;;;5012418;28;20316;-62
2023/01/30 13:31:09;;;;;;;;;;;21.10;99.90;;;;;;5012269;28;19910;-63
2023/01/30 13:33:38;;;;;;;;;;;21.10;99.90;;;;;;5011953;28;20280;-67
2023/01/30 13:36:10;;;;;;;;;;;21.10;99.90;;;;;;5012122;28;19917;-63
2023/01/30 13:38:39;;;;;;;;;;;21.10;99.90;;;;;;5012325;28;20276;-63
2023/01/30 13:41:09;;;;;;;;;;;21.00;99.90;;;;;;5012269;28;19918;-66
2023/01/30 13:43:38;;;;;;;;;;;21.00;99.90;;;;;;5012177;28;19909;-61
2023/01/30 13:46:09;;;;;;;;;;;21.10;99.90;;;;;;5011805;28;20235;-61
2023/01/30 13:48:44;;;;;;;;;;;21.10;99.90;;;;;;5012249;28;19914;-65
2023/01/30 13:51:40;;;;;;;;;;;21.10;99.90;;;;;;5012359;28;19936;-64
2023/01/30 13:54:09;;;;;;;;;;;21.10;99.90;;;;;;5003265;28;19971;-63
2023/01/30 13:56:50;;;;;;;;;;;21.10;99.90;;;;;;5012190;28;20023;-65
2023/01/30 13:59:22;;;;;;;;;;;21.10;99.90;;;;;;5016003;28;19909;-62
2023/01/30 14:02:01;;;;;;;;;;;21.00;99.90;;;;;;5015916;28;19926;-62
2023/01/30 14:04:38;;;;;;;;;;;21.00;99.90;;;;;;5016184;28;19916;-69
2023/01/30 14:07:09;;;;;;;;;;;21.10;99.90;;;;;;5016154;28;20348;-62
2023/01/30 14:09:36;;;;;;;;;;;21.10;99.90;;;;;;5015826;28;20334;-62
2023/01/30 14:12:02;;;;;;;;;;;21.10;99.90;;;;;;5015875;28;19910;-63
2023/01/30 14:14:31;;;;;;;;;;;21.10;99.90;;;;;;5015896;28;19917;-62
2023/01/30 14:17:09;;;;;;;;;;;21.00;99.90;;;;;;5015658;28;19966;-62
2023/01/30 14:19:37;;;;;;;;;;;21.00;99.90;;;;;;5015829;28;19980;-64
2023/01/30 14:22:18;;;;;;;;;;;21.10;99.90;;;;;;5016007;28;19916;-62
2023/01/30 14:24:45;;;;;;;;;;;21.10;99.90;;;;;;5015956;28;20632;-62
2023/01/30 14:27:30;;;;;;;;;;;21.10;99.90;;;;;;5015647;28;19914;-62
2023/01/30 14:29:57;;;;;;;;;;;21.10;99.90;;;;;;5015609;28;20276;-62
2023/01/30 14:32:23;;;;;;;;;;;21.10;99.90;;;;;;5015643;28;19979;-61
2023/01/30 14:35:02;;;;;;;;;;;21.00;99.90;;;;;;5015296;28;19918;-62
2023/01/30 14:37:44;;;;;;;;;;;21.10;99.90;;;;;;5015530;28;20364;-61
2023/01/30 14:40:22;;;;;;;;;;;21.10;99.90;;;;;;5015452;28;19913;-63